sensor_id;sensor_type;location;lat;lon;timestamp;P1;durP1;ratioP1;P2;durP2;ratioP2
13693;SDS011;6919;52.344;14.518;2022-12-08T00:01:56;0.83;;;0.83;;
13693;SDS011;6919;52.344;14.518;2022-12-08T00:04:24;0.50;;;0.50;;
13693;SDS011;6919;52.344;14.518;2022-12-08T00:06:54;0.70;;;0.70;;
13693;SDS011;6919;52.344;14.518;2022-12-08T00:09:40;0.97;;;0.97;;
13693;SDS011;6919;52.344;14.518;2022-12-08T00:12:09;0.60;;;0.60;;
13693;SDS011;6919;52.344;14.518;2022-12-08T00:14:40;0.60;;;0.60;;
13693;SDS011;6919;52.344;14.518;2022-12-08T00:17:12;0.77;;;0.77;;
13693;SDS011;6919;52.344;14.518;2022-12-08T00:19:42;0.60;;;0.60;;
13693;SDS011;6919;52.344;14.518;2022-12-08T00:22:12;0.50;;;0.50;;
13693;SDS011;6919;52.344;14.518;2022-12-08T00:24:41;0.80;;;0.70;;
13693;SDS011;6919;52.344;14.518;2022-12-08T00:27:12;0.90;;;0.90;;
13693;SDS011;6919;52.344;14.518;2022-12-08T00:29:43;1.17;;;1.13;;
13693;SDS011;6919;52.344;14.518;2022-12-08T00:32:12;0.87;;;0.80;;
13693;SDS011;6919;52.344;14.518;2022-12-08T00:34:40;0.63;;;0.63;;
13693;SDS011;6919;52.344;14.518;2022-12-08T00:37:08;0.50;;;0.50;;
13693;SDS011;6919;52.344;14.518;2022-12-08T00:39:38;0.73;;;0.73;;
13693;SDS011;6919;52.344;14.518;2022-12-08T00:42:06;0.37;;;0.37;;
13693;SDS011;6919;52.344;14.518;2022-12-08T00:44:41;1.10;;;1.10;;
13693;SDS011;6919;52.344;14.518;2022-12-08T00:47:11;0.50;;;0.50;;
13693;SDS011;6919;52.344;14.518;2022-12-08T00:49:47;2.63;;;1.00;;
13693;SDS011;6919;52.344;14.518;2022-12-08T00:52:15;0.60;;;0.60;;
13693;SDS011;6919;52.344;14.518;2022-12-08T00:54:45;0.80;;;0.80;;
13693;SDS011;6919;52.344;14.518;2022-12-08T00:57:13;0.70;;;0.70;;
13693;SDS011;6919;52.344;14.518;2022-12-08T00:59:41;0.50;;;0.50;;
13693;SDS011;6919;52.344;14.518;2022-12-08T01:02:09;0.60;;;0.60;;
13693;SDS011;6919;52.344;14.518;2022-12-08T01:04:37;0.60;;;0.60;;
13693;SDS011;6919;52.344;14.518;2022-12-08T01:07:06;0.77;;;0.77;;
13693;SDS011;6919;52.344;14.518;2022-12-08T01:09:35;0.60;;;0.60;;
13693;SDS011;6919;52.344;14.518;2022-12-08T01:12:06;0.50;;;0.50;;
13693;SDS011;6919;52.344;14.518;2022-12-08T01:14:35;0.70;;;0.70;;
13693;SDS011;6919;52.344;14.518;2022-12-08T01:17:03;0.67;;;0.67;;
13693;SDS011;6919;52.344;14.518;2022-12-08T01:19:32;0.60;;;0.60;;
13693;SDS011;6919;52.344;14.518;2022-12-08T01:22:00;0.73;;;0.63;;
13693;SDS011;6919;52.344;14.518;2022-12-08T01:24:28;0.60;;;0.60;;
13693;SDS011;6919;52.344;14.518;2022-12-08T01:26:56;0.73;;;0.73;;
13693;SDS011;6919;52.344;14.518;2022-12-08T01:29:26;1.50;;;1.40;;
13693;SDS011;6919;52.344;14.518;2022-12-08T01:31:54;0.60;;;0.60;;
13693;SDS011;6919;52.344;14.518;2022-12-08T01:34:22;0.60;;;0.60;;
13693;SDS011;6919;52.344;14.518;2022-12-08T01:36:51;0.50;;;0.50;;
13693;SDS011;6919;52.344;14.518;2022-12-08T01:39:19;0.60;;;0.60;;
13693;SDS011;6919;52.344;14.518;2022-12-08T01:41:47;0.60;;;0.60;;
13693;SDS011;6919;52.344;14.518;2022-12-08T01:47:26;1.73;;;1.13;;
13693;SDS011;6919;52.344;14.518;2022-12-08T01:50:02;0.77;;;0.77;;
13693;SDS011;6919;52.344;14.518;2022-12-08T01:52:35;0.67;;;0.67;;
13693;SDS011;6919;52.344;14.518;2022-12-08T01:55:08;0.50;;;0.50;;
13693;SDS011;6919;52.344;14.518;2022-12-08T01:57:44;1.03;;;0.73;;
13693;SDS011;6919;52.344;14.518;2022-12-08T02:00:18;0.50;;;0.50;;
13693;SDS011;6919;52.344;14.518;2022-12-08T02:02:50;0.50;;;0.50;;
13693;SDS011;6919;52.344;14.518;2022-12-08T02:05:24;0.80;;;0.80;;
13693;SDS011;6919;52.344;14.518;2022-12-08T02:07:56;0.70;;;0.70;;
13693;SDS011;6919;52.344;14.518;2022-12-08T02:10:33;1.27;;;0.80;;
13693;SDS011;6919;52.344;14.518;2022-12-08T02:13:03;0.70;;;0.70;;
13693;SDS011;6919;52.344;14.518;2022-12-08T02:15:41;0.70;;;0.70;;
13693;SDS011;6919;52.344;14.518;2022-12-08T02:18:26;0.60;;;0.60;;
13693;SDS011;6919;52.344;14.518;2022-12-08T02:21:43;0.50;;;0.50;;
13693;SDS011;6919;52.344;14.518;2022-12-08T02:24:25;0.60;;;0.60;;
13693;SDS011;6919;52.344;14.518;2022-12-08T02:27:12;2.13;;;1.17;;
13693;SDS011;6919;52.344;14.518;2022-12-08T02:30:10;0.70;;;0.70;;
13693;SDS011;6919;52.344;14.518;2022-12-08T02:33:00;1.33;;;0.90;;
13693;SDS011;6919;52.344;14.518;2022-12-08T02:36:10;0.63;;;0.57;;
13693;SDS011;6919;52.344;14.518;2022-12-08T02:38:46;1.37;;;1.07;;
13693;SDS011;6919;52.344;14.518;2022-12-08T02:41:29;1.03;;;1.03;;
13693;SDS011;6919;52.344;14.518;2022-12-08T02:44:10;0.73;;;0.73;;
13693;SDS011;6919;52.344;14.518;2022-12-08T02:46:49;1.03;;;0.80;;
13693;SDS011;6919;52.344;14.518;2022-12-08T02:49:27;0.97;;;0.97;;
13693;SDS011;6919;52.344;14.518;2022-12-08T02:52:07;0.70;;;0.70;;
13693;SDS011;6919;52.344;14.518;2022-12-08T02:55:14;0.53;;;0.53;;
13693;SDS011;6919;52.344;14.518;2022-12-08T02:58:05;1.97;;;1.57;;
13693;SDS011;6919;52.344;14.518;2022-12-08T03:01:13;0.60;;;0.60;;
13693;SDS011;6919;52.344;14.518;2022-12-08T03:04:07;0.63;;;0.63;;
13693;SDS011;6919;52.344;14.518;2022-12-08T03:06:47;0.97;;;0.93;;
13693;SDS011;6919;52.344;14.518;2022-12-08T03:09:26;0.50;;;0.50;;
13693;SDS011;6919;52.344;14.518;2022-12-08T03:12:04;0.60;;;0.60;;
13693;SDS011;6919;52.344;14.518;2022-12-08T03:14:43;1.33;;;1.23;;
13693;SDS011;6919;52.344;14.518;2022-12-08T03:17:19;0.97;;;0.97;;
13693;SDS011;6919;52.344;14.518;2022-12-08T03:19:52;0.50;;;0.50;;
13693;SDS011;6919;52.344;14.518;2022-12-08T03:22:26;0.50;;;0.50;;
13693;SDS011;6919;52.344;14.518;2022-12-08T03:24:55;0.90;;;0.90;;
13693;SDS011;6919;52.344;14.518;2022-12-08T03:27:25;0.93;;;0.93;;
13693;SDS011;6919;52.344;14.518;2022-12-08T03:29:58;0.87;;;0.87;;
13693;SDS011;6919;52.344;14.518;2022-12-08T03:32:29;0.67;;;0.67;;
13693;SDS011;6919;52.344;14.518;2022-12-08T03:35:05;0.73;;;0.73;;
13693;SDS011;6919;52.344;14.518;2022-12-08T03:37:41;1.27;;;0.97;;
13693;SDS011;6919;52.344;14.518;2022-12-08T03:40:11;0.50;;;0.50;;
13693;SDS011;6919;52.344;14.518;2022-12-08T03:42:44;0.87;;;0.87;;
13693;SDS011;6919;52.344;14.518;2022-12-08T03:45:12;0.93;;;0.93;;
13693;SDS011;6919;52.344;14.518;2022-12-08T03:47:40;0.70;;;0.70;;
13693;SDS011;6919;52.344;14.518;2022-12-08T03:50:09;1.17;;;1.13;;
13693;SDS011;6919;52.344;14.518;2022-12-08T03:52:38;0.97;;;0.83;;
13693;SDS011;6919;52.344;14.518;2022-12-08T03:55:08;0.60;;;0.60;;
13693;SDS011;6919;52.344;14.518;2022-12-08T03:57:36;1.73;;;1.03;;
13693;SDS011;6919;52.344;14.518;2022-12-08T04:00:06;0.40;;;0.40;;
13693;SDS011;6919;52.344;14.518;2022-12-08T04:02:40;0.60;;;0.60;;
13693;SDS011;6919;52.344;14.518;2022-12-08T04:05:09;0.70;;;0.70;;
13693;SDS011;6919;52.344;14.518;2022-12-08T04:07:37;0.63;;;0.63;;
13693;SDS011;6919;52.344;14.518;2022-12-08T04:10:08;0.77;;;0.77;;
13693;SDS011;6919;52.344;14.518;2022-12-08T04:12:37;1.17;;;1.07;;
13693;SDS011;6919;52.344;14.518;2022-12-08T04:15:05;0.73;;;0.73;;
13693;SDS011;6919;52.344;14.518;2022-12-08T04:17:35;0.40;;;0.40;;
13693;SDS011;6919;52.344;14.518;2022-12-08T04:20:04;0.63;;;0.63;;
13693;SDS011;6919;52.344;14.518;2022-12-08T04:22:33;0.60;;;0.60;;
13693;SDS011;6919;52.344;14.518;2022-12-08T04:25:01;0.70;;;0.70;;
13693;SDS011;6919;52.344;14.518;2022-12-08T04:27:31;0.50;;;0.50;;
13693;SDS011;6919;52.344;14.518;2022-12-08T04:30:00;1.00;;;1.00;;
13693;SDS011;6919;52.344;14.518;2022-12-08T04:32:29;0.90;;;0.70;;
13693;SDS011;6919;52.344;14.518;2022-12-08T04:34:57;0.40;;;0.40;;
13693;SDS011;6919;52.344;14.518;2022-12-08T04:37:26;0.60;;;0.60;;
13693;SDS011;6919;52.344;14.518;2022-12-08T04:39:55;0.63;;;0.63;;
13693;SDS011;6919;52.344;14.518;2022-12-08T04:42:23;1.73;;;0.80;;
13693;SDS011;6919;52.344;14.518;2022-12-08T04:44:53;0.50;;;0.50;;
13693;SDS011;6919;52.344;14.518;2022-12-08T04:47:21;0.60;;;0.60;;
13693;SDS011;6919;52.344;14.518;2022-12-08T04:49:49;0.40;;;0.40;;
13693;SDS011;6919;52.344;14.518;2022-12-08T04:52:17;0.50;;;0.50;;
13693;SDS011;6919;52.344;14.518;2022-12-08T04:54:45;0.70;;;0.70;;
13693;SDS011;6919;52.344;14.518;2022-12-08T04:57:14;0.40;;;0.40;;
13693;SDS011;6919;52.344;14.518;2022-12-08T04:59:42;0.77;;;0.77;;
13693;SDS011;6919;52.344;14.518;2022-12-08T05:02:12;0.60;;;0.60;;
13693;SDS011;6919;52.344;14.518;2022-12-08T05:04:41;0.60;;;0.60;;
13693;SDS011;6919;52.344;14.518;2022-12-08T05:07:09;0.70;;;0.70;;
13693;SDS011;6919;52.344;14.518;2022-12-08T05:09:37;1.03;;;0.93;;
13693;SDS011;6919;52.344;14.518;2022-12-08T05:12:05;0.50;;;0.50;;
13693;SDS011;6919;52.344;14.518;2022-12-08T05:14:34;0.70;;;0.70;;
13693;SDS011;6919;52.344;14.518;2022-12-08T05:17:02;0.50;;;0.50;;
13693;SDS011;6919;52.344;14.518;2022-12-08T05:19:36;0.83;;;0.83;;
13693;SDS011;6919;52.344;14.518;2022-12-08T05:22:04;0.70;;;0.70;;
13693;SDS011;6919;52.344;14.518;2022-12-08T05:24:33;0.50;;;0.50;;
13693;SDS011;6919;52.344;14.518;2022-12-08T05:27:01;0.50;;;0.50;;
13693;SDS011;6919;52.344;14.518;2022-12-08T05:29:30;0.67;;;0.67;;
13693;SDS011;6919;52.344;14.518;2022-12-08T05:31:58;0.50;;;0.50;;
13693;SDS011;6919;52.344;14.518;2022-12-08T05:34:26;1.10;;;1.10;;
13693;SDS011;6919;52.344;14.518;2022-12-08T05:36:56;0.63;;;0.63;;
13693;SDS011;6919;52.344;14.518;2022-12-08T05:39:24;0.80;;;0.80;;
13693;SDS011;6919;52.344;14.518;2022-12-08T05:41:52;1.10;;;1.10;;
13693;SDS011;6919;52.344;14.518;2022-12-08T05:44:20;0.53;;;0.53;;
13693;SDS011;6919;52.344;14.518;2022-12-08T05:46:49;0.60;;;0.60;;
13693;SDS011;6919;52.344;14.518;2022-12-08T05:49:17;0.93;;;0.73;;
13693;SDS011;6919;52.344;14.518;2022-12-08T05:51:45;0.80;;;0.80;;
13693;SDS011;6919;52.344;14.518;2022-12-08T05:54:15;0.50;;;0.50;;
13693;SDS011;6919;52.344;14.518;2022-12-08T05:56:43;0.60;;;0.60;;
13693;SDS011;6919;52.344;14.518;2022-12-08T05:59:11;0.93;;;0.93;;
13693;SDS011;6919;52.344;14.518;2022-12-08T06:01:39;0.60;;;0.60;;
13693;SDS011;6919;52.344;14.518;2022-12-08T06:04:08;0.90;;;0.90;;
13693;SDS011;6919;52.344;14.518;2022-12-08T06:06:36;0.60;;;0.60;;
13693;SDS011;6919;52.344;14.518;2022-12-08T06:09:05;0.60;;;0.60;;
13693;SDS011;6919;52.344;14.518;2022-12-08T06:11:35;0.60;;;0.60;;
13693;SDS011;6919;52.344;14.518;2022-12-08T06:14:04;0.60;;;0.60;;
13693;SDS011;6919;52.344;14.518;2022-12-08T06:16:37;1.37;;;0.90;;
13693;SDS011;6919;52.344;14.518;2022-12-08T06:19:05;0.60;;;0.60;;
13693;SDS011;6919;52.344;14.518;2022-12-08T06:21:34;0.87;;;0.87;;
13693;SDS011;6919;52.344;14.518;2022-12-08T06:24:02;0.70;;;0.70;;
13693;SDS011;6919;52.344;14.518;2022-12-08T06:26:31;1.57;;;1.47;;
13693;SDS011;6919;52.344;14.518;2022-12-08T06:29:02;4.63;;;2.13;;
13693;SDS011;6919;52.344;14.518;2022-12-08T06:31:31;5.40;;;3.60;;
13693;SDS011;6919;52.344;14.518;2022-12-08T06:33:59;8.07;;;7.03;;
13693;SDS011;6919;52.344;14.518;2022-12-08T06:36:27;4.87;;;2.87;;
13693;SDS011;6919;52.344;14.518;2022-12-08T06:38:56;11.57;;;5.50;;
13693;SDS011;6919;52.344;14.518;2022-12-08T06:41:25;4.07;;;3.73;;
13693;SDS011;6919;52.344;14.518;2022-12-08T06:43:54;7.70;;;5.87;;
13693;SDS011;6919;52.344;14.518;2022-12-08T06:46:24;10.33;;;5.13;;
13693;SDS011;6919;52.344;14.518;2022-12-08T06:48:52;17.27;;;5.63;;
13693;SDS011;6919;52.344;14.518;2022-12-08T06:51:21;2.60;;;2.13;;
13693;SDS011;6919;52.344;14.518;2022-12-08T06:53:49;11.83;;;4.43;;
13693;SDS011;6919;52.344;14.518;2022-12-08T06:56:17;3.10;;;2.90;;
13693;SDS011;6919;52.344;14.518;2022-12-08T06:58:47;7.40;;;3.80;;
13693;SDS011;6919;52.344;14.518;2022-12-08T07:01:18;4.83;;;4.33;;
13693;SDS011;6919;52.344;14.518;2022-12-08T07:03:48;4.63;;;2.30;;
13693;SDS011;6919;52.344;14.518;2022-12-08T07:06:17;4.57;;;3.00;;
13693;SDS011;6919;52.344;14.518;2022-12-08T07:08:49;7.13;;;3.80;;
13693;SDS011;6919;52.344;14.518;2022-12-08T07:11:18;4.40;;;1.40;;
13693;SDS011;6919;52.344;14.518;2022-12-08T07:13:47;6.23;;;2.47;;
13693;SDS011;6919;52.344;14.518;2022-12-08T07:16:16;8.83;;;3.10;;
13693;SDS011;6919;52.344;14.518;2022-12-08T07:18:45;4.73;;;2.60;;
13693;SDS011;6919;52.344;14.518;2022-12-08T07:21:15;7.87;;;4.87;;
13693;SDS011;6919;52.344;14.518;2022-12-08T07:23:44;4.63;;;4.27;;
13693;SDS011;6919;52.344;14.518;2022-12-08T07:26:22;5.17;;;3.93;;
13693;SDS011;6919;52.344;14.518;2022-12-08T07:28:51;6.27;;;3.53;;
13693;SDS011;6919;52.344;14.518;2022-12-08T07:31:21;4.50;;;3.17;;
13693;SDS011;6919;52.344;14.518;2022-12-08T07:33:51;4.37;;;3.20;;
13693;SDS011;6919;52.344;14.518;2022-12-08T07:36:21;6.20;;;1.73;;
13693;SDS011;6919;52.344;14.518;2022-12-08T07:38:50;3.87;;;3.43;;
13693;SDS011;6919;52.344;14.518;2022-12-08T07:41:20;4.00;;;3.23;;
13693;SDS011;6919;52.344;14.518;2022-12-08T07:43:51;2.27;;;2.17;;
13693;SDS011;6919;52.344;14.518;2022-12-08T07:46:20;2.77;;;2.13;;
13693;SDS011;6919;52.344;14.518;2022-12-08T07:48:51;2.03;;;1.93;;
13693;SDS011;6919;52.344;14.518;2022-12-08T07:51:23;1.20;;;1.20;;
13693;SDS011;6919;52.344;14.518;2022-12-08T07:53:52;3.30;;;1.80;;
13693;SDS011;6919;52.344;14.518;2022-12-08T07:56:20;1.27;;;1.23;;
13693;SDS011;6919;52.344;14.518;2022-12-08T07:58:49;3.67;;;2.10;;
13693;SDS011;6919;52.344;14.518;2022-12-08T08:01:18;2.10;;;1.90;;
13693;SDS011;6919;52.344;14.518;2022-12-08T08:03:50;1.33;;;1.23;;
13693;SDS011;6919;52.344;14.518;2022-12-08T08:06:19;1.23;;;1.13;;
13693;SDS011;6919;52.344;14.518;2022-12-08T08:08:48;2.17;;;1.90;;
13693;SDS011;6919;52.344;14.518;2022-12-08T08:11:17;2.23;;;2.03;;
13693;SDS011;6919;52.344;14.518;2022-12-08T08:13:47;1.83;;;1.73;;
13693;SDS011;6919;52.344;14.518;2022-12-08T08:16:15;1.60;;;1.23;;
13693;SDS011;6919;52.344;14.518;2022-12-08T08:18:45;3.27;;;2.03;;
13693;SDS011;6919;52.344;14.518;2022-12-08T08:21:15;0.87;;;0.87;;
13693;SDS011;6919;52.344;14.518;2022-12-08T08:24:06;0.90;;;0.90;;
13693;SDS011;6919;52.344;14.518;2022-12-08T08:26:35;1.47;;;1.37;;
13693;SDS011;6919;52.344;14.518;2022-12-08T08:29:03;0.93;;;0.93;;
13693;SDS011;6919;52.344;14.518;2022-12-08T08:31:32;0.80;;;0.80;;
13693;SDS011;6919;52.344;14.518;2022-12-08T08:34:00;1.67;;;1.47;;
13693;SDS011;6919;52.344;14.518;2022-12-08T08:36:31;0.90;;;0.90;;
13693;SDS011;6919;52.344;14.518;2022-12-08T08:39:00;1.57;;;1.13;;
13693;SDS011;6919;52.344;14.518;2022-12-08T08:41:29;1.53;;;1.43;;
13693;SDS011;6919;52.344;14.518;2022-12-08T08:43:58;0.53;;;0.53;;
13693;SDS011;6919;52.344;14.518;2022-12-08T08:46:26;1.37;;;0.93;;
13693;SDS011;6919;52.344;14.518;2022-12-08T08:48:54;2.87;;;1.60;;
13693;SDS011;6919;52.344;14.518;2022-12-08T08:51:23;0.90;;;0.90;;
13693;SDS011;6919;52.344;14.518;2022-12-08T08:53:51;0.90;;;0.90;;
13693;SDS011;6919;52.344;14.518;2022-12-08T08:56:19;0.50;;;0.50;;
13693;SDS011;6919;52.344;14.518;2022-12-08T08:58:49;0.80;;;0.80;;
13693;SDS011;6919;52.344;14.518;2022-12-08T09:01:20;0.73;;;0.73;;
13693;SDS011;6919;52.344;14.518;2022-12-08T09:03:51;0.60;;;0.60;;
13693;SDS011;6919;52.344;14.518;2022-12-08T09:06:20;1.07;;;1.07;;
13693;SDS011;6919;52.344;14.518;2022-12-08T09:08:50;0.73;;;0.73;;
13693;SDS011;6919;52.344;14.518;2022-12-08T09:11:18;1.13;;;1.10;;
13693;SDS011;6919;52.344;14.518;2022-12-08T09:13:50;0.90;;;0.80;;
13693;SDS011;6919;52.344;14.518;2022-12-08T09:16:20;0.87;;;0.87;;
13693;SDS011;6919;52.344;14.518;2022-12-08T09:18:49;0.97;;;0.97;;
13693;SDS011;6919;52.344;14.518;2022-12-08T09:21:19;0.53;;;0.53;;
13693;SDS011;6919;52.344;14.518;2022-12-08T09:23:52;0.80;;;0.80;;
13693;SDS011;6919;52.344;14.518;2022-12-08T09:26:24;0.87;;;0.87;;
13693;SDS011;6919;52.344;14.518;2022-12-08T09:28:56;1.03;;;0.93;;
13693;SDS011;6919;52.344;14.518;2022-12-08T09:31:24;1.00;;;1.00;;
13693;SDS011;6919;52.344;14.518;2022-12-08T09:33:52;0.83;;;0.83;;
13693;SDS011;6919;52.344;14.518;2022-12-08T09:36:21;0.70;;;0.70;;
13693;SDS011;6919;52.344;14.518;2022-12-08T09:38:49;2.30;;;1.27;;
13693;SDS011;6919;52.344;14.518;2022-12-08T09:41:19;0.93;;;0.90;;
13693;SDS011;6919;52.344;14.518;2022-12-08T09:44:20;0.83;;;0.83;;
13693;SDS011;6919;52.344;14.518;2022-12-08T09:47:20;0.87;;;0.87;;
13693;SDS011;6919;52.344;14.518;2022-12-08T09:50:03;1.37;;;1.27;;
13693;SDS011;6919;52.344;14.518;2022-12-08T09:52:40;0.63;;;0.63;;
13693;SDS011;6919;52.344;14.518;2022-12-08T09:55:16;0.80;;;0.80;;
13693;SDS011;6919;52.344;14.518;2022-12-08T09:57:53;0.87;;;0.87;;
13693;SDS011;6919;52.344;14.518;2022-12-08T10:00:30;0.93;;;0.93;;
13693;SDS011;6919;52.344;14.518;2022-12-08T10:02:59;0.30;;;0.30;;
13693;SDS011;6919;52.344;14.518;2022-12-08T10:05:27;1.27;;;1.17;;
13693;SDS011;6919;52.344;14.518;2022-12-08T10:08:06;1.63;;;1.53;;
13693;SDS011;6919;52.344;14.518;2022-12-08T10:10:41;1.47;;;1.37;;
13693;SDS011;6919;52.344;14.518;2022-12-08T10:13:24;2.43;;;0.87;;
13693;SDS011;6919;52.344;14.518;2022-12-08T10:16:06;2.07;;;1.23;;
13693;SDS011;6919;52.344;14.518;2022-12-08T10:18:55;2.80;;;1.37;;
13693;SDS011;6919;52.344;14.518;2022-12-08T10:21:36;0.77;;;0.77;;
13693;SDS011;6919;52.344;14.518;2022-12-08T10:24:09;0.70;;;0.70;;
13693;SDS011;6919;52.344;14.518;2022-12-08T10:26:48;0.60;;;0.60;;
13693;SDS011;6919;52.344;14.518;2022-12-08T10:29:17;1.37;;;1.33;;
13693;SDS011;6919;52.344;14.518;2022-12-08T10:31:46;1.40;;;1.30;;
13693;SDS011;6919;52.344;14.518;2022-12-08T10:34:16;0.63;;;0.63;;
13693;SDS011;6919;52.344;14.518;2022-12-08T10:36:49;0.83;;;0.83;;
13693;SDS011;6919;52.344;14.518;2022-12-08T10:39:31;0.50;;;0.50;;
13693;SDS011;6919;52.344;14.518;2022-12-08T10:42:07;0.80;;;0.80;;
13693;SDS011;6919;52.344;14.518;2022-12-08T10:44:52;1.07;;;0.90;;
13693;SDS011;6919;52.344;14.518;2022-12-08T10:47:28;1.27;;;1.17;;
13693;SDS011;6919;52.344;14.518;2022-12-08T10:52:55;0.50;;;0.50;;
13693;SDS011;6919;52.344;14.518;2022-12-08T10:55:26;1.73;;;1.37;;
13693;SDS011;6919;52.344;14.518;2022-12-08T10:57:56;0.70;;;0.70;;
13693;SDS011;6919;52.344;14.518;2022-12-08T11:00:24;0.60;;;0.60;;
13693;SDS011;6919;52.344;14.518;2022-12-08T11:02:57;1.70;;;0.90;;
13693;SDS011;6919;52.344;14.518;2022-12-08T11:05:29;0.60;;;0.60;;
13693;SDS011;6919;52.344;14.518;2022-12-08T11:08:00;0.87;;;0.87;;
13693;SDS011;6919;52.344;14.518;2022-12-08T11:10:32;0.77;;;0.77;;
13693;SDS011;6919;52.344;14.518;2022-12-08T11:13:11;0.40;;;0.40;;
13693;SDS011;6919;52.344;14.518;2022-12-08T11:15:48;0.63;;;0.63;;
13693;SDS011;6919;52.344;14.518;2022-12-08T11:18:23;0.53;;;0.53;;
13693;SDS011;6919;52.344;14.518;2022-12-08T11:20:56;1.03;;;1.03;;
13693;SDS011;6919;52.344;14.518;2022-12-08T11:23:33;1.10;;;1.00;;
13693;SDS011;6919;52.344;14.518;2022-12-08T11:26:05;0.57;;;0.57;;
13693;SDS011;6919;52.344;14.518;2022-12-08T11:28:44;1.23;;;1.13;;
13693;SDS011;6919;52.344;14.518;2022-12-08T11:31:16;0.73;;;0.73;;
13693;SDS011;6919;52.344;14.518;2022-12-08T11:33:56;0.43;;;0.43;;
13693;SDS011;6919;52.344;14.518;2022-12-08T11:36:25;1.03;;;1.03;;
13693;SDS011;6919;52.344;14.518;2022-12-08T11:38:58;0.87;;;0.87;;
13693;SDS011;6919;52.344;14.518;2022-12-08T11:41:29;1.63;;;1.33;;
13693;SDS011;6919;52.344;14.518;2022-12-08T11:44:04;0.80;;;0.80;;
13693;SDS011;6919;52.344;14.518;2022-12-08T11:46:47;0.97;;;0.97;;
13693;SDS011;6919;52.344;14.518;2022-12-08T11:49:23;0.40;;;0.40;;
13693;SDS011;6919;52.344;14.518;2022-12-08T11:52:01;0.40;;;0.40;;
13693;SDS011;6919;52.344;14.518;2022-12-08T11:54:40;1.10;;;1.00;;
13693;SDS011;6919;52.344;14.518;2022-12-08T11:57:17;0.67;;;0.63;;
13693;SDS011;6919;52.344;14.518;2022-12-08T11:59:49;3.30;;;0.70;;
13693;SDS011;6919;52.344;14.518;2022-12-08T12:02:22;0.60;;;0.60;;
13693;SDS011;6919;52.344;14.518;2022-12-08T12:04:56;0.97;;;0.80;;
13693;SDS011;6919;52.344;14.518;2022-12-08T12:07:45;0.40;;;0.40;;
13693;SDS011;6919;52.344;14.518;2022-12-08T12:10:37;1.50;;;1.40;;
13693;SDS011;6919;52.344;14.518;2022-12-08T12:13:34;0.93;;;0.80;;
13693;SDS011;6919;52.344;14.518;2022-12-08T12:19:27;0.60;;;0.60;;
13693;SDS011;6919;52.344;14.518;2022-12-08T12:22:07;0.87;;;0.87;;
13693;SDS011;6919;52.344;14.518;2022-12-08T12:24:43;0.57;;;0.57;;
13693;SDS011;6919;52.344;14.518;2022-12-08T12:27:20;0.40;;;0.40;;
13693;SDS011;6919;52.344;14.518;2022-12-08T12:29:54;0.83;;;0.83;;
13693;SDS011;6919;52.344;14.518;2022-12-08T12:32:39;1.63;;;1.53;;
13693;SDS011;6919;52.344;14.518;2022-12-08T12:35:13;0.60;;;0.60;;
13693;SDS011;6919;52.344;14.518;2022-12-08T12:37:55;0.87;;;0.80;;
13693;SDS011;6919;52.344;14.518;2022-12-08T12:40:33;0.60;;;0.60;;
13693;SDS011;6919;52.344;14.518;2022-12-08T12:43:11;1.20;;;1.07;;
13693;SDS011;6919;52.344;14.518;2022-12-08T12:52:46;0.63;;;0.63;;
13693;SDS011;6919;52.344;14.518;2022-12-08T12:55:20;0.87;;;0.87;;
13693;SDS011;6919;52.344;14.518;2022-12-08T12:57:52;1.17;;;0.93;;
13693;SDS011;6919;52.344;14.518;2022-12-08T13:00:23;0.50;;;0.50;;
13693;SDS011;6919;52.344;14.518;2022-12-08T13:02:54;2.10;;;1.17;;
13693;SDS011;6919;52.344;14.518;2022-12-08T13:05:25;0.73;;;0.73;;
13693;SDS011;6919;52.344;14.518;2022-12-08T13:07:57;1.03;;;1.03;;
13693;SDS011;6919;52.344;14.518;2022-12-08T13:10:30;0.60;;;0.60;;
13693;SDS011;6919;52.344;14.518;2022-12-08T13:13:03;1.17;;;1.00;;
13693;SDS011;6919;52.344;14.518;2022-12-08T13:15:47;0.60;;;0.60;;
13693;SDS011;6919;52.344;14.518;2022-12-08T13:18:19;2.07;;;0.60;;
13693;SDS011;6919;52.344;14.518;2022-12-08T13:20:53;0.47;;;0.47;;
13693;SDS011;6919;52.344;14.518;2022-12-08T13:23:42;0.57;;;0.57;;
13693;SDS011;6919;52.344;14.518;2022-12-08T13:26:18;1.03;;;0.93;;
13693;SDS011;6919;52.344;14.518;2022-12-08T13:29:12;0.53;;;0.53;;
13693;SDS011;6919;52.344;14.518;2022-12-08T13:31:45;1.33;;;1.07;;
13693;SDS011;6919;52.344;14.518;2022-12-08T13:34:18;0.80;;;0.80;;
13693;SDS011;6919;52.344;14.518;2022-12-08T13:39:55;0.40;;;0.40;;
13693;SDS011;6919;52.344;14.518;2022-12-08T13:42:34;0.87;;;0.87;;
13693;SDS011;6919;52.344;14.518;2022-12-08T13:45:12;0.77;;;0.77;;
13693;SDS011;6919;52.344;14.518;2022-12-08T13:48:09;0.50;;;0.50;;
13693;SDS011;6919;52.344;14.518;2022-12-08T13:51:09;0.60;;;0.60;;
13693;SDS011;6919;52.344;14.518;2022-12-08T13:54:03;0.70;;;0.70;;
13693;SDS011;6919;52.344;14.518;2022-12-08T13:56:58;0.63;;;0.63;;
13693;SDS011;6919;52.344;14.518;2022-12-08T13:59:43;0.90;;;0.90;;
13693;SDS011;6919;52.344;14.518;2022-12-08T14:02:14;0.53;;;0.53;;
13693;SDS011;6919;52.344;14.518;2022-12-08T14:04:49;0.73;;;0.73;;
13693;SDS011;6919;52.344;14.518;2022-12-08T14:07:38;0.80;;;0.80;;
13693;SDS011;6919;52.344;14.518;2022-12-08T14:10:12;0.50;;;0.43;;
13693;SDS011;6919;52.344;14.518;2022-12-08T14:12:51;1.77;;;1.67;;
13693;SDS011;6919;52.344;14.518;2022-12-08T14:15:25;0.70;;;0.70;;
13693;SDS011;6919;52.344;14.518;2022-12-08T14:18:02;0.73;;;0.73;;
13693;SDS011;6919;52.344;14.518;2022-12-08T14:20:31;0.93;;;0.93;;
13693;SDS011;6919;52.344;14.518;2022-12-08T14:23:21;0.50;;;0.50;;
13693;SDS011;6919;52.344;14.518;2022-12-08T14:25:49;1.40;;;1.30;;
13693;SDS011;6919;52.344;14.518;2022-12-08T14:28:17;1.73;;;1.23;;
13693;SDS011;6919;52.344;14.518;2022-12-08T14:30:49;0.97;;;0.90;;
13693;SDS011;6919;52.344;14.518;2022-12-08T14:33:18;1.50;;;1.17;;
13693;SDS011;6919;52.344;14.518;2022-12-08T14:35:50;1.03;;;1.03;;
13693;SDS011;6919;52.344;14.518;2022-12-08T14:38:21;0.50;;;0.50;;
13693;SDS011;6919;52.344;14.518;2022-12-08T14:40:59;0.50;;;0.50;;
13693;SDS011;6919;52.344;14.518;2022-12-08T14:43:30;0.40;;;0.40;;
13693;SDS011;6919;52.344;14.518;2022-12-08T14:46:02;0.93;;;0.93;;
13693;SDS011;6919;52.344;14.518;2022-12-08T14:48:44;0.43;;;0.43;;
13693;SDS011;6919;52.344;14.518;2022-12-08T14:51:14;0.80;;;0.80;;
13693;SDS011;6919;52.344;14.518;2022-12-08T14:53:52;0.57;;;0.57;;
13693;SDS011;6919;52.344;14.518;2022-12-08T14:56:25;1.03;;;1.03;;
13693;SDS011;6919;52.344;14.518;2022-12-08T14:59:04;0.40;;;0.40;;
13693;SDS011;6919;52.344;14.518;2022-12-08T15:01:41;0.67;;;0.67;;
13693;SDS011;6919;52.344;14.518;2022-12-08T15:04:14;0.93;;;0.93;;
13693;SDS011;6919;52.344;14.518;2022-12-08T15:06:46;0.60;;;0.60;;
13693;SDS011;6919;52.344;14.518;2022-12-08T15:09:27;0.77;;;0.77;;
13693;SDS011;6919;52.344;14.518;2022-12-08T15:12:01;0.87;;;0.87;;
13693;SDS011;6919;52.344;14.518;2022-12-08T15:14:33;0.50;;;0.50;;
13693;SDS011;6919;52.344;14.518;2022-12-08T15:20:01;0.90;;;0.90;;
13693;SDS011;6919;52.344;14.518;2022-12-08T15:22:32;0.60;;;0.60;;
13693;SDS011;6919;52.344;14.518;2022-12-08T15:25:00;0.50;;;0.50;;
13693;SDS011;6919;52.344;14.518;2022-12-08T15:27:29;1.03;;;1.00;;
13693;SDS011;6919;52.344;14.518;2022-12-08T15:30:11;0.50;;;0.50;;
13693;SDS011;6919;52.344;14.518;2022-12-08T15:32:42;0.90;;;0.90;;
13693;SDS011;6919;52.344;14.518;2022-12-08T15:35:11;1.20;;;0.70;;
13693;SDS011;6919;52.344;14.518;2022-12-08T15:37:40;1.77;;;1.20;;
13693;SDS011;6919;52.344;14.518;2022-12-08T15:40:09;0.40;;;0.40;;
13693;SDS011;6919;52.344;14.518;2022-12-08T15:42:44;0.90;;;0.90;;
13693;SDS011;6919;52.344;14.518;2022-12-08T15:45:14;0.60;;;0.60;;
13693;SDS011;6919;52.344;14.518;2022-12-08T15:47:44;0.50;;;0.50;;